Time;durP1;ratioP1;P1;durP2;ratioP2;P2;SDS_P1;SDS_P2;PMS_P1;PMS_P2;Temp;Humidity;BMP_temperature;BMP_pressure;BME280_temperature;BME280_humidity;BME280_pressure;Samples;Min_cycle;Max_cycle;Signal;HPM_P1;HPM_P2
2022/12/20 00:00:53;;;;;;;8.80;3.75;;;;;;;;;;4998647;28;20073;-78
2022/12/20 00:03:21;;;;;;;10.80;3.80;;;;;;;;;;4998690;28;20160;-77
2022/12/20 00:05:48;;;;;;;10.27;3.78;;;;;;;;;;4998442;28;20518;-77
2022/12/20 00:08:15;;;;;;;10.13;3.88;;;;;;;;;;4998516;28;20049;-77
2022/12/20 00:10:45;;;;;;;8.95;3.78;;;;;;;;;;4995160;28;20066;-76
2022/12/20 00:13:13;;;;;;;11.18;3.47;;;;;;;;;;5001651;28;20068;-77
2022/12/20 00:15:40;;;;;;;6.28;3.20;;;;;;;;;;4998647;28;20065;-76
2022/12/20 00:18:08;;;;;;;8.13;3.78;;;;;;;;;;4990855;28;20083;-77
2022/12/20 00:20:35;;;;;;;8.57;3.47;;;;;;;;;;5001190;28;20045;-77
2022/12/20 00:23:03;;;;;;;10.63;3.97;;;;;;;;;;5001242;28;20056;-77
2022/12/20 00:25:30;;;;;;;5.47;3.30;;;;;;;;;;4995916;28;20698;-77
2022/12/20 00:28:00;;;;;;;9.88;3.40;;;;;;;;;;5008544;28;20120;-77
2022/12/20 00:30:27;;;;;;;7.18;3.28;;;;;;;;;;5010863;28;20143;-77
2022/12/20 00:32:54;;;;;;;6.45;2.83;;;;;;;;;;5000179;28;20061;-77
2022/12/20 00:35:22;;;;;;;5.18;2.90;;;;;;;;;;5002260;28;20049;-77
2022/12/20 00:37:49;;;;;;;6.90;3.03;;;;;;;;;;4988975;28;20082;-78
2022/12/20 00:40:16;;;;;;;7.50;3.28;;;;;;;;;;5001016;28;20049;-77
2022/12/20 00:42:43;;;;;;;11.68;3.90;;;;;;;;;;4996748;28;20512;-77
2022/12/20 00:45:12;;;;;;;6.15;2.95;;;;;;;;;;4993562;28;20057;-78
2022/12/20 00:47:40;;;;;;;8.20;3.15;;;;;;;;;;4998592;28;20112;-76
2022/12/20 00:50:07;;;;;;;10.23;2.97;;;;;;;;;;5001025;28;20050;-79
2022/12/20 00:52:35;;;;;;;6.50;2.95;;;;;;;;;;5000702;28;20053;-77
2022/12/20 00:55:02;;;;;;;6.90;2.85;;;;;;;;;;5001360;28;20056;-76
2022/12/20 00:57:29;;;;;;;5.78;2.72;;;;;;;;;;5001112;28;20527;-77
2022/12/20 00:59:56;;;;;;;5.50;2.83;;;;;;;;;;4999747;28;20050;-76
2022/12/20 01:02:25;;;;;;;8.70;2.88;;;;;;;;;;5010583;28;20136;-77
2022/12/20 01:04:52;;;;;;;5.63;2.85;;;;;;;;;;5005544;28;20060;-77
2022/12/20 01:07:22;;;;;;;9.32;3.55;;;;;;;;;;5000278;28;20045;-77
2022/12/20 01:09:49;;;;;;;4.63;2.55;;;;;;;;;;4998743;28;20057;-77
2022/12/20 01:12:16;;;;;;;9.88;3.30;;;;;;;;;;4998114;28;20072;-76
2022/12/20 01:14:43;;;;;;;7.07;2.97;;;;;;;;;;4978041;28;20061;-77
2022/12/20 01:17:11;;;;;;;6.75;3.10;;;;;;;;;;4981749;28;20519;-77
2022/12/20 01:19:40;;;;;;;7.35;2.90;;;;;;;;;;4970108;28;20054;-77
2022/12/20 01:22:07;;;;;;;8.90;2.53;;;;;;;;;;4975947;28;20065;-77
2022/12/20 01:24:35;;;;;;;5.55;2.85;;;;;;;;;;4968813;28;20050;-77
2022/12/20 01:27:02;;;;;;;6.82;2.90;;;;;;;;;;4977811;28;20484;-77
2022/12/20 01:29:29;;;;;;;7.28;2.83;;;;;;;;;;4971941;28;20053;-76
2022/12/20 01:31:56;;;;;;;6.82;2.78;;;;;;;;;;4978859;28;20062;-77
2022/12/20 01:34:24;;;;;;;6.53;3.30;;;;;;;;;;4987125;28;20060;-76
2022/12/20 01:36:52;;;;;;;6.50;2.72;;;;;;;;;;4977486;28;20728;-77
2022/12/20 01:39:19;;;;;;;7.53;3.13;;;;;;;;;;4984644;28;20053;-77
2022/12/20 01:41:47;;;;;;;6.35;2.80;;;;;;;;;;4982889;28;20057;-77
2022/12/20 01:44:33;;;;;;;7.70;3.20;;;;;;;;;;4983327;28;20061;-77
2022/12/20 01:47:00;;;;;;;5.53;2.90;;;;;;;;;;4987893;28;20087;-77
2022/12/20 01:49:29;;;;;;;8.25;3.05;;;;;;;;;;4984171;28;20050;-77
2022/12/20 01:52:00;;;;;;;6.15;3.15;;;;;;;;;;4985618;28;20053;-78
2022/12/20 01:54:30;;;;;;;9.93;2.90;;;;;;;;;;4983093;28;20070;-77
2022/12/20 01:56:58;;;;;;;5.22;2.55;;;;;;;;;;5014514;28;20052;-78
2022/12/20 01:59:26;;;;;;;9.18;3.17;;;;;;;;;;4979127;28;20139;-77
2022/12/20 02:01:54;;;;;;;7.55;3.10;;;;;;;;;;4980575;28;20050;-78
2022/12/20 02:04:22;;;;;;;9.63;3.58;;;;;;;;;;4979682;28;20519;-77
2022/12/20 02:06:49;;;;;;;4.82;2.95;;;;;;;;;;4982625;28;20061;-76
2022/12/20 02:09:18;;;;;;;6.78;3.28;;;;;;;;;;4984102;28;20120;-78
2022/12/20 02:11:54;;;;;;;10.82;3.10;;;;;;;;;;4978756;28;20444;-76
2022/12/20 02:14:28;;;;;;;10.20;3.20;;;;;;;;;;4985162;28;20058;-77
2022/12/20 02:16:58;;;;;;;11.70;3.13;;;;;;;;;;4994038;28;20042;-77
2022/12/20 02:19:43;;;;;;;6.97;3.10;;;;;;;;;;4989659;28;20045;-76
2022/12/20 02:22:17;;;;;;;5.05;2.70;;;;;;;;;;4987293;28;20084;-76
2022/12/20 02:25:00;;;;;;;8.35;3.08;;;;;;;;;;4986240;28;20058;-77
2022/12/20 02:27:45;;;;;;;7.30;3.10;;;;;;;;;;4978124;28;20057;-77
2022/12/20 02:30:16;;;;;;;8.02;3.00;;;;;;;;;;4984672;28;20751;-77
2022/12/20 02:32:47;;;;;;;9.95;3.72;;;;;;;;;;4980075;28;20046;-76
2022/12/20 02:35:15;;;;;;;12.13;3.78;;;;;;;;;;5002404;28;20150;-77
2022/12/20 02:37:49;;;;;;;7.47;3.53;;;;;;;;;;4983588;28;20049;-77
2022/12/20 02:40:18;;;;;;;8.73;3.30;;;;;;;;;;4984312;28;20050;-76
2022/12/20 02:42:46;;;;;;;9.57;3.60;;;;;;;;;;4978933;28;20143;-76
2022/12/20 02:45:15;;;;;;;8.80;3.75;;;;;;;;;;4984554;28;20472;-76
2022/12/20 02:47:46;;;;;;;10.70;3.75;;;;;;;;;;4986669;28;20060;-75
2022/12/20 02:50:14;;;;;;;6.63;3.53;;;;;;;;;;4984191;28;20540;-75
2022/12/20 02:52:41;;;;;;;6.80;3.17;;;;;;;;;;4980485;28;20137;-76
2022/12/20 02:55:09;;;;;;;11.30;4.20;;;;;;;;;;4983148;28;20084;-75
2022/12/20 02:57:39;;;;;;;13.68;4.07;;;;;;;;;;4999045;28;20050;-76
2022/12/20 03:00:08;;;;;;;11.20;3.95;;;;;;;;;;4982173;28;20102;-75
2022/12/20 03:05:20;;;;;;;7.63;3.60;;;;;;;;;;4980272;28;20042;-76
2022/12/20 03:07:47;;;;;;;9.77;4.13;;;;;;;;;;4979259;28;20052;-76
2022/12/20 03:10:14;;;;;;;5.28;3.45;;;;;;;;;;4983272;28;20050;-76
2022/12/20 03:12:42;;;;;;;6.88;3.78;;;;;;;;;;4983667;28;20568;-76
2022/12/20 03:15:10;;;;;;;18.88;4.88;;;;;;;;;;4982225;28;20053;-76
2022/12/20 03:17:37;;;;;;;9.85;3.80;;;;;;;;;;4982315;28;20061;-75
2022/12/20 03:20:05;;;;;;;9.27;3.38;;;;;;;;;;4978556;28;20069;-76
2022/12/20 03:22:33;;;;;;;8.30;3.30;;;;;;;;;;4983017;28;20133;-75
2022/12/20 03:25:01;;;;;;;9.38;3.38;;;;;;;;;;4982686;28;20149;-76
2022/12/20 03:27:28;;;;;;;7.53;3.85;;;;;;;;;;4979245;28;20050;-76
2022/12/20 03:29:55;;;;;;;11.23;3.65;;;;;;;;;;4979461;28;20061;-76
2022/12/20 03:32:23;;;;;;;7.05;3.50;;;;;;;;;;4971882;28;20057;-76
2022/12/20 03:34:50;;;;;;;7.00;3.22;;;;;;;;;;4982226;28;20061;-77
2022/12/20 03:37:18;;;;;;;6.05;3.35;;;;;;;;;;4981454;28;20054;-76
2022/12/20 03:39:46;;;;;;;9.38;4.00;;;;;;;;;;4976365;28;20059;-77
2022/12/20 03:42:14;;;;;;;8.07;3.47;;;;;;;;;;4981273;28;20053;-76
2022/12/20 03:44:41;;;;;;;8.93;3.45;;;;;;;;;;4980220;28;20058;-76
2022/12/20 03:47:08;;;;;;;7.03;3.60;;;;;;;;;;4984005;28;20156;-76
2022/12/20 03:49:36;;;;;;;7.82;3.47;;;;;;;;;;4982688;28;20499;-76
2022/12/20 03:52:03;;;;;;;7.25;3.70;;;;;;;;;;4982787;28;20049;-76
2022/12/20 03:54:30;;;;;;;6.93;4.18;;;;;;;;;;4978644;28;20137;-75
2022/12/20 03:56:59;;;;;;;8.05;3.60;;;;;;;;;;4980183;28;20054;-75
2022/12/20 03:59:26;;;;;;;6.78;3.63;;;;;;;;;;4978917;28;20776;-76
2022/12/20 04:01:53;;;;;;;8.15;4.07;;;;;;;;;;4980488;28;20068;-74
2022/12/20 04:04:20;;;;;;;6.57;3.53;;;;;;;;;;4981235;28;20087;-75
2022/12/20 04:06:48;;;;;;;7.90;3.53;;;;;;;;;;4959385;28;20038;-76
2022/12/20 04:09:15;;;;;;;7.97;3.75;;;;;;;;;;4973855;28;20046;-75
2022/12/20 04:11:42;;;;;;;5.38;3.50;;;;;;;;;;4977021;28;20065;-76
2022/12/20 04:14:11;;;;;;;5.63;4.32;;;;;;;;;;4993120;28;20077;-76
2022/12/20 04:16:38;;;;;;;8.45;3.60;;;;;;;;;;4982105;28;20176;-75
2022/12/20 04:19:06;;;;;;;6.47;3.80;;;;;;;;;;4998160;28;20041;-75
2022/12/20 04:21:34;;;;;;;7.55;3.67;;;;;;;;;;4990509;28;20103;-76
2022/12/20 04:24:03;;;;;;;7.70;3.92;;;;;;;;;;4991389;28;20100;-76
2022/12/20 04:26:30;;;;;;;7.15;3.92;;;;;;;;;;4994546;28;20053;-77
2022/12/20 04:28:58;;;;;;;8.25;3.58;;;;;;;;;;4993049;28;20049;-75
2022/12/20 04:31:26;;;;;;;6.13;3.65;;;;;;;;;;4998901;28;20050;-76
2022/12/20 04:33:53;;;;;;;5.72;3.28;;;;;;;;;;4996246;28;20077;-76
2022/12/20 04:36:21;;;;;;;8.40;3.90;;;;;;;;;;5000839;28;20057;-76
2022/12/20 04:38:48;;;;;;;8.02;3.53;;;;;;;;;;4994990;28;20064;-75
2022/12/20 04:41:21;;;;;;;6.70;3.40;;;;;;;;;;5002216;28;20057;-76
2022/12/20 04:43:48;;;;;;;;;;;;;;;;;;4996017;28;20057;-75
2022/12/20 04:46:16;;;;;;;5.38;3.20;;;;;;;;;;5000547;28;19924;-76
2022/12/20 04:48:44;;;;;;;8.20;3.42;;;;;;;;;;5002870;28;20061;-75
2022/12/20 04:51:12;;;;;;;6.50;2.92;;;;;;;;;;5004934;28;20708;-76
2022/12/20 04:53:47;;;;;;;7.10;3.45;;;;;;;;;;5001424;28;20061;-76
2022/12/20 04:56:15;;;;;;;7.13;3.10;;;;;;;;;;4997124;28;20049;-75
2022/12/20 04:58:42;;;;;;;6.28;3.35;;;;;;;;;;5003853;28;20672;-74
2022/12/20 05:01:09;;;;;;;6.15;3.10;;;;;;;;;;4999198;28;20059;-76
2022/12/20 05:03:37;;;;;;;9.60;4.78;;;;;;;;;;5018420;28;20049;-75
2022/12/20 05:06:05;;;;;;;7.07;3.08;;;;;;;;;;5006579;28;20061;-76
2022/12/20 05:08:33;;;;;;;4.78;2.88;;;;;;;;;;5002338;28;20037;-76
2022/12/20 05:11:01;;;;;;;7.55;3.10;;;;;;;;;;5001021;28;20447;-76
2022/12/20 05:13:28;;;;;;;8.18;3.17;;;;;;;;;;4998630;28;20061;-76
2022/12/20 05:15:56;;;;;;;8.63;3.40;;;;;;;;;;4997519;28;20049;-75
2022/12/20 05:18:23;;;;;;;9.60;3.38;;;;;;;;;;5002979;28;20046;-76
2022/12/20 05:26:16;;;;;;;6.20;3.13;;;;;;;;;;5001488;28;20678;-76
2022/12/20 05:26:26;;;;;;;8.10;2.47;;;;;;;;;;4998727;28;20717;-76
2022/12/20 05:28:53;;;;;;;6.93;2.65;;;;;;;;;;5003774;28;20475;-76
2022/12/20 05:31:20;;;;;;;8.55;3.00;;;;;;;;;;5001367;28;20050;-75
2022/12/20 05:33:48;;;;;;;7.45;3.40;;;;;;;;;;5006334;28;20467;-77
2022/12/20 05:36:15;;;;;;;5.40;2.97;;;;;;;;;;5026715;28;20050;-76
2022/12/20 05:38:43;;;;;;;7.68;3.17;;;;;;;;;;5006463;28;20060;-76
2022/12/20 05:41:11;;;;;;;8.48;3.10;;;;;;;;;;5003618;28;20108;-77
2022/12/20 05:43:38;;;;;;;4.97;2.60;;;;;;;;;;4998301;28;20053;-76
2022/12/20 05:46:05;;;;;;;6.88;2.70;;;;;;;;;;4991941;28;20053;-76
2022/12/20 05:48:32;;;;;;;7.13;3.03;;;;;;;;;;5000745;28;20050;-76
2022/12/20 05:51:00;;;;;;;6.95;3.10;;;;;;;;;;4994822;28;20060;-76
2022/12/20 05:53:27;;;;;;;7.63;2.72;;;;;;;;;;5000223;28;20049;-76
2022/12/20 05:55:56;;;;;;;8.20;3.10;;;;;;;;;;4996998;28;20049;-76
2022/12/20 05:58:23;;;;;;;8.00;2.83;;;;;;;;;;4995316;28;20045;-76
2022/12/20 06:00:50;;;;;;;4.93;2.78;;;;;;;;;;4993212;28;20579;-77
2022/12/20 06:03:17;;;;;;;7.55;2.78;;;;;;;;;;4993548;28;20049;-75
2022/12/20 06:05:45;;;;;;;4.97;2.80;;;;;;;;;;5003771;28;20057;-76
2022/12/20 06:08:12;;;;;;;5.70;2.75;;;;;;;;;;4990237;28;20676;-76
2022/12/20 06:10:41;;;;;;;6.32;2.78;;;;;;;;;;4992790;28;20628;-76
2022/12/20 06:13:10;;;;;;;7.72;2.95;;;;;;;;;;4995314;28;20135;-75
2022/12/20 06:15:38;;;;;;;7.00;3.15;;;;;;;;;;4975912;28;20165;-75
2022/12/20 06:18:05;;;;;;;6.47;2.75;;;;;;;;;;4995706;28;20767;-78
2022/12/20 06:20:33;;;;;;;4.85;2.85;;;;;;;;;;5002390;28;20057;-76
2022/12/20 06:23:00;;;;;;;5.18;2.65;;;;;;;;;;5001907;28;20060;-76
2022/12/20 06:25:28;;;;;;;8.55;2.85;;;;;;;;;;5001595;28;20049;-78
2022/12/20 06:27:55;;;;;;;7.28;3.92;;;;;;;;;;5001200;28;20630;-76
2022/12/20 06:30:24;;;;;;;7.38;3.42;;;;;;;;;;5000938;28;20778;-79
2022/12/20 06:32:51;;;;;;;6.35;3.40;;;;;;;;;;4991283;28;20136;-77
2022/12/20 06:35:18;;;;;;;5.60;3.20;;;;;;;;;;4999856;28;20065;-77
2022/12/20 06:37:45;;;;;;;6.78;3.75;;;;;;;;;;4992738;28;20092;-77
2022/12/20 06:40:14;;;;;;;6.18;3.72;;;;;;;;;;5002620;28;20053;-83
2022/12/20 06:42:41;;;;;;;5.95;4.38;;;;;;;;;;5001790;28;20060;-75
2022/12/20 06:45:09;;;;;;;7.65;4.43;;;;;;;;;;5005026;28;20052;-77
2022/12/20 06:47:38;;;;;;;8.52;4.53;;;;;;;;;;4999082;28;20053;-78
2022/12/20 06:50:06;;;;;;;12.75;4.80;;;;;;;;;;5002038;28;20068;-76
2022/12/20 06:52:33;;;;;;;7.75;5.25;;;;;;;;;;5000987;28;20103;-78
2022/12/20 06:55:01;;;;;;;8.60;5.22;;;;;;;;;;5002357;28;20056;-77
2022/12/20 06:57:28;;;;;;;13.50;5.55;;;;;;;;;;4997420;28;20115;-76
2022/12/20 06:59:55;;;;;;;8.82;5.97;;;;;;;;;;5000865;28;20049;-77
2022/12/20 07:02:22;;;;;;;8.75;5.30;;;;;;;;;;4999702;28;20045;-77
2022/12/20 07:04:51;;;;;;;11.32;5.63;;;;;;;;;;4996406;28;20049;-77
2022/12/20 07:07:19;;;;;;;9.18;5.25;;;;;;;;;;4991795;28;20068;-76
2022/12/20 07:09:46;;;;;;;7.18;4.32;;;;;;;;;;4995277;28;20075;-77
2022/12/20 07:12:14;;;;;;;6.93;4.82;;;;;;;;;;4999892;28;20057;-77
2022/12/20 07:14:41;;;;;;;7.82;5.10;;;;;;;;;;5017098;28;20057;-76
2022/12/20 07:17:08;;;;;;;11.50;5.15;;;;;;;;;;5033341;28;20065;-76
2022/12/20 07:19:36;;;;;;;9.77;5.18;;;;;;;;;;5002010;28;20050;-76
2022/12/20 07:22:05;;;;;;;7.55;4.70;;;;;;;;;;5001891;28;20103;-77
2022/12/20 07:24:32;;;;;;;13.52;5.00;;;;;;;;;;5003248;28;20126;-77
2022/12/20 07:27:00;;;;;;;8.30;5.63;;;;;;;;;;4999953;28;20125;-77
2022/12/20 07:29:27;;;;;;;9.32;4.70;;;;;;;;;;5002132;28;20060;-76
2022/12/20 07:31:54;;;;;;;8.52;5.00;;;;;;;;;;5001589;28;20058;-77
2022/12/20 07:34:22;;;;;;;6.65;4.40;;;;;;;;;;5003168;28;20045;-77
2022/12/20 07:36:49;;;;;;;6.70;4.10;;;;;;;;;;5001703;28;20049;-77
2022/12/20 07:39:18;;;;;;;8.07;4.90;;;;;;;;;;5001426;28;20037;-77
2022/12/20 07:41:46;;;;;;;7.20;4.45;;;;;;;;;;5002131;28;20154;-78
2022/12/20 07:44:13;;;;;;;6.65;3.90;;;;;;;;;;5001261;28;20546;-76
2022/12/20 07:46:40;;;;;;;8.48;4.78;;;;;;;;;;4996323;28;20041;-77
2022/12/20 07:49:08;;;;;;;8.50;4.32;;;;;;;;;;5004309;28;20111;-78
2022/12/20 07:51:37;;;;;;;10.65;4.10;;;;;;;;;;5000953;28;20058;-76
2022/12/20 07:54:05;;;;;;;9.57;4.53;;;;;;;;;;5002204;28;20154;-77
2022/12/20 07:56:35;;;;;;;7.38;4.43;;;;;;;;;;5002615;28;20053;-77
2022/12/20 07:59:03;;;;;;;9.00;4.10;;;;;;;;;;5001952;28;20050;-77
2022/12/20 08:01:31;;;;;;;10.00;4.18;;;;;;;;;;5006485;28;20067;-77
2022/12/20 08:04:00;;;;;;;7.53;4.15;;;;;;;;;;5000945;28;20051;-77
2022/12/20 08:06:28;;;;;;;7.00;4.07;;;;;;;;;;5003207;28;20045;-77
2022/12/20 08:08:58;;;;;;;8.00;4.10;;;;;;;;;;5004845;28;20051;-76
2022/12/20 08:11:26;;;;;;;10.02;4.25;;;;;;;;;;5006513;28;20049;-77
2022/12/20 08:13:54;;;;;;;10.10;4.00;;;;;;;;;;4997783;28;20080;-76
2022/12/20 08:16:22;;;;;;;10.32;4.03;;;;;;;;;;5002581;28;20133;-76
2022/12/20 08:18:49;;;;;;;5.93;3.72;;;;;;;;;;5001559;28;20048;-76
2022/12/20 08:21:17;;;;;;;7.85;3.40;;;;;;;;;;5002635;28;20057;-77
2022/12/20 08:23:45;;;;;;;10.02;3.83;;;;;;;;;;5000400;28;20214;-77
2022/12/20 08:26:12;;;;;;;6.95;3.53;;;;;;;;;;4998653;28;20069;-76
2022/12/20 08:28:39;;;;;;;10.80;4.30;;;;;;;;;;5001145;28;20060;-77
2022/12/20 08:31:09;;;;;;;7.65;3.42;;;;;;;;;;5001638;28;20076;-77
2022/12/20 08:33:37;;;;;;;7.05;3.63;;;;;;;;;;4999143;28;20881;-77
2022/12/20 08:36:06;;;;;;;9.15;3.40;;;;;;;;;;5000891;28;20053;-77
2022/12/20 08:38:33;;;;;;;5.72;3.00;;;;;;;;;;5003908;28;20079;-76
2022/12/20 08:41:02;;;;;;;5.85;3.08;;;;;;;;;;4993447;28;20057;-77
2022/12/20 08:43:29;;;;;;;6.13;2.75;;;;;;;;;;4992407;28;20050;-77
2022/12/20 08:45:57;;;;;;;6.82;2.97;;;;;;;;;;5003371;28;20085;-77
2022/12/20 08:48:25;;;;;;;7.50;3.28;;;;;;;;;;4998428;28;20088;-77
2022/12/20 08:50:56;;;;;;;4.90;3.00;;;;;;;;;;5002930;28;20046;-78
2022/12/20 08:53:23;;;;;;;7.05;3.22;;;;;;;;;;5004848;28;20048;-78
2022/12/20 08:55:51;;;;;;;5.95;2.95;;;;;;;;;;5004895;28;20064;-77
2022/12/20 08:58:18;;;;;;;9.07;2.90;;;;;;;;;;5005343;28;20049;-77
2022/12/20 09:00:45;;;;;;;4.82;2.83;;;;;;;;;;5035721;28;20057;-77
2022/12/20 09:03:14;;;;;;;7.55;2.90;;;;;;;;;;5005976;28;20111;-78
2022/12/20 09:05:46;;;;;;;8.02;2.65;;;;;;;;;;4999370;28;20079;-77
2022/12/20 09:08:13;;;;;;;6.30;2.42;;;;;;;;;;5004307;28;20151;-77
2022/12/20 09:10:41;;;;;;;5.20;2.60;;;;;;;;;;4999570;28;20033;-77
2022/12/20 09:13:08;;;;;;;6.88;2.20;;;;;;;;;;5003919;28;20065;-77
2022/12/20 09:15:36;;;;;;;7.63;2.78;;;;;;;;;;5002164;28;20053;-77
2022/12/20 09:18:03;;;;;;;8.10;2.75;;;;;;;;;;5002315;28;20053;-77
2022/12/20 09:20:30;;;;;;;6.47;2.42;;;;;;;;;;5001885;28;20052;-77
2022/12/20 09:23:00;;;;;;;5.32;2.25;;;;;;;;;;5004380;28;20774;-78
2022/12/20 09:25:27;;;;;;;6.32;2.10;;;;;;;;;;4995563;28;20050;-77
2022/12/20 09:27:56;;;;;;;5.30;2.30;;;;;;;;;;5002418;28;20061;-77
2022/12/20 09:30:23;;;;;;;6.72;2.20;;;;;;;;;;5002608;28;20530;-77
2022/12/20 09:32:51;;;;;;;5.30;2.17;;;;;;;;;;5001070;28;20471;-77
2022/12/20 09:35:19;;;;;;;4.00;1.73;;;;;;;;;;5004652;28;20049;-77
2022/12/20 09:37:46;;;;;;;4.35;2.03;;;;;;;;;;5002911;28;20064;-77
2022/12/20 09:40:17;;;;;;;6.50;2.00;;;;;;;;;;5005536;28;20041;-77
2022/12/20 09:42:45;;;;;;;6.97;2.40;;;;;;;;;;5002602;28;20652;-77
2022/12/20 09:45:16;;;;;;;5.00;1.85;;;;;;;;;;5001959;28;20508;-77
2022/12/20 09:47:43;;;;;;;5.50;2.22;;;;;;;;;;5003984;28;20049;-77
2022/12/20 09:50:15;;;;;;;6.38;2.25;;;;;;;;;;5031304;28;20412;-78
2022/12/20 09:52:48;;;;;;;11.25;2.10;;;;;;;;;;4991639;28;20149;-78
2022/12/20 09:55:22;;;;;;;6.95;2.10;;;;;;;;;;5002980;28;20049;-78
2022/12/20 09:57:55;;;;;;;8.35;2.50;;;;;;;;;;5002064;28;20088;-78
2022/12/20 10:00:23;;;;;;;7.50;2.10;;;;;;;;;;5004253;28;20053;-77
2022/12/20 10:02:50;;;;;;;8.23;2.20;;;;;;;;;;5001582;28;20049;-77
2022/12/20 10:05:18;;;;;;;4.32;2.10;;;;;;;;;;5003397;28;20065;-78
2022/12/20 10:07:50;;;;;;;5.60;2.28;;;;;;;;;;5011290;28;20535;-78
2022/12/20 10:10:25;;;;;;;7.32;2.90;;;;;;;;;;4998760;28;20053;-77
2022/12/20 10:12:57;;;;;;;7.30;2.30;;;;;;;;;;4953125;28;1443047;-78
2022/12/20 10:15:27;;;;;;;7.47;2.30;;;;;;;;;;5031827;28;20084;-77
2022/12/20 10:18:03;;;;;;;7.60;2.40;;;;;;;;;;5003707;28;20057;-77
2022/12/20 10:20:40;;;;;;;7.25;2.28;;;;;;;;;;5005559;28;20045;-78
2022/12/20 10:23:12;;;;;;;6.15;2.33;;;;;;;;;;5005129;28;20481;-78
2022/12/20 10:25:40;;;;;;;6.00;2.30;;;;;;;;;;5003523;28;20436;-78
2022/12/20 10:28:11;;;;;;;6.43;2.28;;;;;;;;;;5005572;28;20049;-77
2022/12/20 10:30:39;;;;;;;7.40;2.40;;;;;;;;;;5020226;28;20067;-77
2022/12/20 10:33:14;;;;;;;5.07;2.00;;;;;;;;;;5001966;28;20144;-77
2022/12/20 10:35:42;;;;;;;8.32;2.20;;;;;;;;;;5002960;28;20049;-78
2022/12/20 10:38:12;;;;;;;6.60;2.50;;;;;;;;;;5003230;28;20061;-77
2022/12/20 10:40:42;;;;;;;8.45;3.03;;;;;;;;;;5004003;28;20107;-77
2022/12/20 10:43:15;;;;;;;11.02;3.08;;;;;;;;;;4998483;28;20073;-77
2022/12/20 10:45:46;;;;;;;15.40;4.68;;;;;;;;;;5000269;28;20504;-77
2022/12/20 10:48:28;;;;;;;10.05;3.30;;;;;;;;;;5000240;28;20728;-77
2022/12/20 10:50:56;;;;;;;7.55;2.30;;;;;;;;;;4998550;28;20037;-78
2022/12/20 10:53:26;;;;;;;6.32;2.72;;;;;;;;;;5003301;28;21251;-77
2022/12/20 10:55:55;;;;;;;9.80;2.58;;;;;;;;;;5002616;28;20681;-77
2022/12/20 10:58:31;;;;;;;9.13;2.20;;;;;;;;;;5002434;28;20045;-77
2022/12/20 11:01:04;;;;;;;9.07;2.70;;;;;;;;;;4997827;28;20045;-78
2022/12/20 11:03:32;;;;;;;5.43;2.28;;;;;;;;;;4999886;28;20062;-77
2022/12/20 11:06:01;;;;;;;5.55;2.38;;;;;;;;;;4998568;28;21622;-78
2022/12/20 11:08:29;;;;;;;5.47;2.30;;;;;;;;;;4998396;28;20060;-77
2022/12/20 11:11:15;;;;;;;5.55;2.67;;;;;;;;;;4998271;28;20038;-78
2022/12/20 11:13:43;;;;;;;7.68;2.50;;;;;;;;;;5030116;28;20095;-77
2022/12/20 11:16:37;;;;;;;4.85;2.50;;;;;;;;;;4997812;28;20107;-78
2022/12/20 11:19:13;;;;;;;7.35;2.78;;;;;;;;;;4966990;28;20049;-78
2022/12/20 11:21:44;;;;;;;5.10;2.75;;;;;;;;;;5000795;28;20079;-77
2022/12/20 11:24:13;;;;;;;8.20;2.65;;;;;;;;;;5001881;28;20103;-77
2022/12/20 11:26:55;;;;;;;6.90;3.10;;;;;;;;;;5001294;28;20771;-77
2022/12/20 11:29:35;;;;;;;8.13;3.00;;;;;;;;;;4997852;28;20060;-77
2022/12/20 11:32:06;;;;;;;11.73;3.45;;;;;;;;;;5003331;28;20041;-77
2022/12/20 11:34:39;;;;;;;8.10;3.05;;;;;;;;;;5004069;28;20059;-78
2022/12/20 11:37:18;;;;;;;10.57;3.63;;;;;;;;;;5003885;28;20115;-77
2022/12/20 11:39:51;;;;;;;7.88;3.25;;;;;;;;;;5004190;28;20292;-77
2022/12/20 11:42:25;;;;;;;8.00;3.67;;;;;;;;;;5000684;28;20049;-77
2022/12/20 11:44:56;;;;;;;8.13;3.42;;;;;;;;;;4999389;28;20048;-78
2022/12/20 11:47:35;;;;;;;13.15;3.72;;;;;;;;;;5001682;28;20045;-77
2022/12/20 11:50:09;;;;;;;7.03;3.33;;;;;;;;;;4998633;28;20057;-77
2022/12/20 11:52:39;;;;;;;11.20;3.55;;;;;;;;;;5001916;28;20061;-78
2022/12/20 11:55:19;;;;;;;10.95;3.70;;;;;;;;;;5009784;28;20053;-78
2022/12/20 11:57:51;;;;;;;6.88;4.20;;;;;;;;;;4996013;28;20088;-77
2022/12/20 12:00:26;;;;;;;8.82;4.25;;;;;;;;;;4996936;28;20057;-78
2022/12/20 12:02:55;;;;;;;8.05;4.80;;;;;;;;;;4999295;28;20131;-78
2022/12/20 12:05:25;;;;;;;8.93;3.95;;;;;;;;;;5002257;28;20046;-77
2022/12/20 12:07:54;;;;;;;9.32;4.68;;;;;;;;;;4998092;28;20153;-77
2022/12/20 12:10:23;;;;;;;10.15;4.35;;;;;;;;;;5001598;28;20053;-77
2022/12/20 12:12:54;;;;;;;11.95;5.20;;;;;;;;;;4999755;28;20503;-77
2022/12/20 12:15:28;;;;;;;9.32;4.75;;;;;;;;;;4997816;28;20148;-78
2022/12/20 12:17:59;;;;;;;8.57;4.60;;;;;;;;;;5000730;28;20053;-77
2022/12/20 12:20:34;;;;;;;9.57;4.50;;;;;;;;;;5014177;28;20049;-77
2022/12/20 12:23:04;;;;;;;10.10;5.45;;;;;;;;;;5003414;28;20075;-77
2022/12/20 12:25:32;;;;;;;10.10;4.95;;;;;;;;;;5001577;28;20057;-78
2022/12/20 12:28:00;;;;;;;10.02;4.90;;;;;;;;;;5001311;28;20059;-77
2022/12/20 12:30:30;;;;;;;10.57;4.57;;;;;;;;;;4999586;28;20053;-77
2022/12/20 12:33:01;;;;;;;8.38;5.28;;;;;;;;;;4998445;28;20657;-78
2022/12/20 12:35:40;;;;;;;10.60;5.45;;;;;;;;;;5002605;28;20064;-78
2022/12/20 12:38:18;;;;;;;10.57;5.28;;;;;;;;;;5002760;28;20045;-78
2022/12/20 12:41:01;;;;;;;8.38;5.78;;;;;;;;;;5004232;28;20053;-78
2022/12/20 12:43:45;;;;;;;11.32;5.90;;;;;;;;;;4999193;28;20147;-77
2022/12/20 12:46:13;;;;;;;8.77;5.45;;;;;;;;;;5000855;28;20053;-77
2022/12/20 12:48:42;;;;;;;11.15;5.93;;;;;;;;;;5033185;28;20064;-78
2022/12/20 12:51:10;;;;;;;12.82;5.97;;;;;;;;;;5000775;28;20057;-77
2022/12/20 12:53:43;;;;;;;10.38;5.85;;;;;;;;;;5003258;28;20061;-78
2022/12/20 12:56:37;;;;;;;10.50;6.20;;;;;;;;;;5000042;28;20109;-77
2022/12/20 12:59:26;;;;;;;13.85;6.10;;;;;;;;;;5032433;28;20129;-77
2022/12/20 13:01:55;;;;;;;7.57;5.82;;;;;;;;;;4997497;28;20119;-78
2022/12/20 13:04:24;;;;;;;11.25;6.53;;;;;;;;;;5004706;28;20107;-77
2022/12/20 13:07:04;;;;;;;10.30;6.50;;;;;;;;;;5001847;28;20077;-77
2022/12/20 13:09:43;;;;;;;12.00;8.27;;;;;;;;;;5004991;28;20061;-77
2022/12/20 13:12:29;;;;;;;14.10;7.90;;;;;;;;;;5005479;28;20465;-77
2022/12/20 13:14:56;;;;;;;17.65;9.20;;;;;;;;;;4998126;28;20061;-78
2022/12/20 13:17:47;;;;;;;15.25;7.93;;;;;;;;;;4994679;28;20068;-78
2022/12/20 13:20:21;;;;;;;15.55;8.73;;;;;;;;;;4993590;28;20057;-77
2022/12/20 13:23:16;;;;;;;17.77;9.60;;;;;;;;;;5001233;28;20056;-77
2022/12/20 13:25:44;;;;;;;13.65;9.90;;;;;;;;;;4997157;28;20646;-78
2022/12/20 13:28:26;;;;;;;17.02;10.80;;;;;;;;;;4998458;28;20293;-76
2022/12/20 13:31:09;;;;;;;19.13;11.18;;;;;;;;;;4995341;28;20448;-76
2022/12/20 13:33:42;;;;;;;17.65;11.52;;;;;;;;;;4997662;28;20137;-76
2022/12/20 13:36:25;;;;;;;21.80;12.43;;;;;;;;;;5002770;28;20050;-76
2022/12/20 13:38:54;;;;;;;18.17;12.45;;;;;;;;;;4993249;28;20057;-76
2022/12/20 13:41:29;;;;;;;19.63;12.88;;;;;;;;;;5007037;28;20042;-74
2022/12/20 13:43:58;;;;;;;23.58;13.60;;;;;;;;;;5005920;28;20176;-76
2022/12/20 13:46:28;;;;;;;21.55;12.70;;;;;;;;;;5007093;28;20683;-74
2022/12/20 13:48:57;;;;;;;20.27;12.80;;;;;;;;;;4999924;28;20045;-73
2022/12/20 13:51:26;;;;;;;17.35;12.40;;;;;;;;;;4993534;28;20038;-75
2022/12/20 13:53:54;;;;;;;19.77;13.32;;;;;;;;;;5004149;28;20084;-76
2022/12/20 13:56:31;;;;;;;18.50;12.75;;;;;;;;;;5000461;28;20042;-76
2022/12/20 13:58:59;;;;;;;17.90;12.57;;;;;;;;;;5004634;28;20049;-76
2022/12/20 14:01:27;;;;;;;21.13;13.32;;;;;;;;;;4998475;28;20049;-75
2022/12/20 14:03:54;;;;;;;16.85;13.05;;;;;;;;;;5002784;28;20053;-76
2022/12/20 14:06:24;;;;;;;19.73;13.18;;;;;;;;;;5008684;28;20055;-75
2022/12/20 14:08:52;;;;;;;22.70;14.07;;;;;;;;;;5002469;28;20768;-75
2022/12/20 14:11:22;;;;;;;17.73;13.88;;;;;;;;;;5003582;28;20129;-75
2022/12/20 14:13:53;;;;;;;21.52;14.68;;;;;;;;;;5000502;28;20092;-75
2022/12/20 14:16:21;;;;;;;21.17;14.98;;;;;;;;;;5001875;28;20551;-76
2022/12/20 14:19:01;;;;;;;24.35;15.43;;;;;;;;;;4995951;28;20050;-80
2022/12/20 14:21:30;;;;;;;24.55;14.95;;;;;;;;;;4999794;28;20049;-82
2022/12/20 14:23:59;;;;;;;21.75;16.48;;;;;;;;;;4997695;28;20565;-78
2022/12/20 14:26:28;;;;;;;20.02;15.02;;;;;;;;;;4986943;28;20081;-79
2022/12/20 14:28:57;;;;;;;21.23;15.65;;;;;;;;;;5002368;28;20045;-80
2022/12/20 14:31:25;;;;;;;28.77;16.35;;;;;;;;;;4998124;28;20053;-80
2022/12/20 14:33:52;;;;;;;25.42;16.50;;;;;;;;;;4993293;28;20042;-81
2022/12/20 14:36:21;;;;;;;21.60;16.05;;;;;;;;;;4993455;28;20289;-79
2022/12/20 14:38:50;;;;;;;23.92;15.77;;;;;;;;;;4997177;28;20500;-80
2022/12/20 14:41:31;;;;;;;25.13;16.48;;;;;;;;;;4991748;28;20046;-80
2022/12/20 14:44:00;;;;;;;25.60;16.63;;;;;;;;;;5003017;28;21341;-80
2022/12/20 14:46:27;;;;;;;22.75;16.98;;;;;;;;;;4998949;28;20050;-79
2022/12/20 14:49:06;;;;;;;28.90;17.83;;;;;;;;;;5002321;28;20053;-79
2022/12/20 14:51:34;;;;;;;25.90;17.20;;;;;;;;;;4995904;28;20169;-79
2022/12/20 14:54:04;;;;;;;25.42;18.27;;;;;;;;;;4999029;28;20570;-79
2022/12/20 14:56:32;;;;;;;24.83;18.33;;;;;;;;;;4997652;28;20061;-77
2022/12/20 14:59:08;;;;;;;30.63;19.80;;;;;;;;;;4992395;28;20305;-80